Prattsville, Arkansas
Current Conditions -  °F | °C
As of 8:22 PM on Saturday 25 Oct 2014 (Local Time) from KADF Reporting Station
Haze Haze  
Wind Chill: 19°   Ceiling: Unl
Heat Index: 19°   Visibility: 1.2mi
Dew Point: 19°   Wind: 0mph
Humidity: 100%   Direction: NA
Pressure: 30.05"   Gusts: NA
Location:  34.31°N, 92.55°W
Report Text: KADF 260122Z AUTO 00000KT 1 1/4SM BR CLR 19/19 A3005 RMK AO2
Loading
Personal Weather Stations






























Interactive Weather Map
Tropical Storm Tracking
New forecast layout! Learn more

10-Day Weather Forecast

Advertisements
Track Severe Weather on mobile